createdAt,value
2023-05-16T00:00:27.739Z,100349.69
2023-05-16T00:03:33.516Z,100347.67
2023-05-16T00:06:40.165Z,100351.30
2023-05-16T00:09:46.024Z,100348.87
2023-05-16T00:12:51.497Z,100350.04
2023-05-16T00:15:58.203Z,100343.81
2023-05-16T00:19:08.151Z,100339.10
2023-05-16T00:22:14.652Z,100348.87
2023-05-16T00:25:20.858Z,100340.14
2023-05-16T00:28:25.762Z,100338.05
2023-05-16T00:31:31.992Z,100343.53
2023-05-16T00:34:37.775Z,100351.44
2023-05-16T00:37:45.155Z,100347.61
2023-05-16T00:40:50.780Z,100349.33
2023-05-16T00:43:56.360Z,100362.00
2023-05-16T00:47:02.346Z,100353.16
2023-05-16T00:50:07.952Z,100354.42
2023-05-16T00:53:13.705Z,100357.06
2023-05-16T00:56:20.145Z,100351.84
2023-05-16T00:59:26.943Z,100351.05
2023-05-16T01:02:33.727Z,100348.29
2023-05-16T01:05:40.163Z,100346.66
2023-05-16T01:08:45.719Z,100347.03
2023-05-16T01:12:45.297Z,100343.41
2023-05-16T01:16:00.532Z,100339.24
2023-05-16T01:19:16.722Z,100337.50
2023-05-16T01:22:37.783Z,100336.60
2023-05-16T01:26:12.973Z,100335.91
2023-05-16T01:29:18.549Z,100337.30
2023-05-16T01:32:24.199Z,100340.92
2023-05-16T01:35:30.897Z,100339.48
2023-05-16T01:38:41.473Z,100338.37
2023-05-16T01:42:02.603Z,100336.42
2023-05-16T01:45:39.800Z,100339.11
2023-05-16T01:48:49.969Z,100339.21
2023-05-16T01:51:55.798Z,100336.14
2023-05-16T01:55:01.682Z,100338.52
2023-05-16T01:58:06.865Z,100342.09
2023-05-16T02:01:12.778Z,100341.09
2023-05-16T02:04:05.649Z,100337.52
2023-05-16T02:07:12.689Z,100338.66
2023-05-16T02:10:17.914Z,100339.80
2023-05-16T02:13:23.027Z,100338.86
2023-05-16T02:16:27.834Z,100341.47
2023-05-16T02:19:33.192Z,100339.45
2023-05-16T02:22:39.770Z,100341.81
2023-05-16T02:25:45.990Z,100336.01
2023-05-16T02:28:56.185Z,100345.86
2023-05-16T02:32:01.687Z,100339.56
2023-05-16T02:35:08.007Z,100343.61
2023-05-16T02:38:14.654Z,100340.35
2023-05-16T02:41:19.879Z,100340.22
2023-05-16T02:44:25.661Z,100342.23
2023-05-16T02:47:31.790Z,100343.31
2023-05-16T02:50:38.140Z,100348.55
2023-05-16T02:53:43.952Z,100343.17
2023-05-16T02:56:51.823Z,100344.36
2023-05-16T02:59:58.603Z,100352.00
2023-05-16T03:03:05.482Z,100349.70
2023-05-16T03:06:12.769Z,100348.42
2023-05-16T03:09:19.002Z,100350.45
2023-05-16T03:12:24.902Z,100348.53
2023-05-16T03:15:30.095Z,100351.47
2023-05-16T03:18:35.953Z,100352.10
2023-05-16T03:21:42.989Z,100346.55
2023-05-16T03:24:47.851Z,100352.41
2023-05-16T03:27:53.552Z,100347.73
2023-05-16T03:30:59.438Z,100351.03
2023-05-16T03:34:04.380Z,100352.06
2023-05-16T03:37:10.785Z,100353.19
2023-05-16T03:40:16.740Z,100354.95
2023-05-16T03:43:23.373Z,100359.25
2023-05-16T03:46:29.377Z,100361.28
2023-05-16T03:49:35.635Z,100355.63
2023-05-16T03:52:40.469Z,100355.20
2023-05-16T03:55:48.097Z,100349.78
2023-05-16T03:58:53.652Z,100344.34
2023-05-16T04:01:59.328Z,100349.24
2023-05-16T04:05:04.066Z,100360.85
2023-05-16T04:08:10.442Z,100352.66
2023-05-16T04:11:16.900Z,100354.25
2023-05-16T04:14:22.680Z,100354.57
2023-05-16T04:17:28.290Z,100359.64
2023-05-16T04:20:33.242Z,100373.28
2023-05-16T04:23:37.932Z,100378.14
2023-05-16T04:26:44.372Z,100381.84
2023-05-16T04:29:50.223Z,100380.10
2023-05-16T04:32:55.618Z,100376.55
2023-05-16T04:36:01.202Z,100385.00
2023-05-16T04:39:06.962Z,100382.33
2023-05-16T04:42:14.150Z,100372.82
2023-05-16T04:45:20.932Z,100379.86
2023-05-16T04:48:26.632Z,100372.82
2023-05-16T04:51:33.307Z,100370.64
2023-05-16T04:54:38.862Z,100372.86
2023-05-16T04:57:44.258Z,100372.64
2023-05-16T05:00:49.960Z,100371.78
2023-05-16T05:03:57.091Z,100381.05
2023-05-16T05:07:03.257Z,100376.55
2023-05-16T05:10:09.142Z,100386.08
2023-05-16T05:13:14.510Z,100390.26
2023-05-16T05:16:20.971Z,100389.41
2023-05-16T05:19:27.159Z,100385.70
2023-05-16T05:22:33.660Z,100384.80
2023-05-16T05:25:46.174Z,100386.16
2023-05-16T05:29:03.877Z,100387.98
2023-05-16T05:32:00.283Z,100380.16
2023-05-16T05:35:06.441Z,100381.47
2023-05-16T05:38:12.411Z,100385.87
2023-05-16T05:41:19.259Z,100378.31
2023-05-16T05:44:28.967Z,100382.73
2023-05-16T05:47:34.804Z,100374.33
2023-05-16T05:50:40.358Z,100377.88
2023-05-16T05:53:45.780Z,100385.05
2023-05-16T05:56:50.560Z,100382.30
2023-05-16T05:59:57.448Z,100389.30
2023-05-16T06:03:04.293Z,100383.05
2023-05-16T06:06:09.700Z,100391.52
2023-05-16T06:09:15.433Z,100384.21
2023-05-16T06:12:20.080Z,100382.47
2023-05-16T06:15:26.305Z,100390.86
2023-05-16T06:18:32.506Z,100385.02
2023-05-16T06:21:38.028Z,100379.83
2023-05-16T06:24:45.187Z,100391.71
2023-05-16T06:27:50.916Z,100391.50
2023-05-16T06:30:57.891Z,100392.53
2023-05-16T06:34:04.083Z,100392.66
2023-05-16T06:37:11.034Z,100391.33
2023-05-16T06:40:16.397Z,100389.33
2023-05-16T06:43:22.684Z,100394.13
2023-05-16T06:46:29.620Z,100393.67
2023-05-16T06:49:35.826Z,100386.31
2023-05-16T06:52:41.509Z,100389.56
2023-05-16T06:55:47.447Z,100385.50
2023-05-16T06:58:53.421Z,100381.23
2023-05-16T07:01:59.531Z,100386.45
2023-05-16T07:05:04.695Z,100395.77
2023-05-16T07:08:10.344Z,100389.22
2023-05-16T07:11:15.778Z,100387.63
2023-05-16T07:14:21.507Z,100392.34
2023-05-16T07:17:33.678Z,100389.33
2023-05-16T07:20:40.706Z,100397.63
2023-05-16T07:23:46.578Z,100390.89
2023-05-16T07:26:53.115Z,100397.54
2023-05-16T07:29:58.421Z,100399.14
2023-05-16T07:33:04.996Z,100400.01
2023-05-16T07:36:16.875Z,100401.91
2023-05-16T07:39:18.081Z,100398.18
2023-05-16T07:42:23.538Z,100396.58
2023-05-16T07:45:29.839Z,100391.09
2023-05-16T07:48:36.156Z,100391.81
2023-05-16T07:51:43.544Z,100385.62
2023-05-16T07:54:49.952Z,100381.94
2023-05-16T07:57:56.087Z,100378.94
2023-05-16T08:01:01.918Z,100382.41
2023-05-16T08:04:08.477Z,100396.67
2023-05-16T08:07:14.044Z,100388.61
2023-05-16T08:10:20.862Z,100394.57
2023-05-16T08:13:26.435Z,100394.80
2023-05-16T08:16:31.908Z,100383.53
2023-05-16T08:19:40.444Z,100389.53
2023-05-16T08:22:47.199Z,100390.37
2023-05-16T08:25:55.199Z,100391.17
2023-05-16T08:29:00.581Z,100389.35
2023-05-16T08:31:59.567Z,100397.98
2023-05-16T08:35:06.213Z,100391.19
2023-05-16T08:38:12.931Z,100390.13
2023-05-16T08:41:17.991Z,100388.52
2023-05-16T08:44:25.379Z,100383.36
2023-05-16T08:47:35.178Z,100384.86
2023-05-16T08:50:40.072Z,100386.48
2023-05-16T08:53:49.509Z,100380.21
2023-05-16T08:56:56.674Z,100374.86
2023-05-16T09:00:03.609Z,100376.00
2023-05-16T09:03:09.972Z,100375.25
2023-05-16T09:06:15.294Z,100376.59
2023-05-16T09:09:21.001Z,100375.21
2023-05-16T09:12:26.689Z,100374.44
2023-05-16T09:15:33.629Z,100366.53
2023-05-16T09:18:38.970Z,100368.06
2023-05-16T09:21:48.854Z,100368.56
2023-05-16T09:24:56.306Z,100375.55
2023-05-16T09:28:03.905Z,100363.05
2023-05-16T09:31:10.051Z,100358.78
2023-05-16T09:34:15.864Z,100358.78
2023-05-16T09:37:21.459Z,100367.41
2023-05-16T09:40:27.580Z,100364.72
2023-05-16T09:43:37.509Z,100357.49
2023-05-16T09:46:45.367Z,100353.17
2023-05-16T09:49:52.795Z,100352.55
2023-05-16T09:52:59.317Z,100346.95
2023-05-16T09:56:05.333Z,100350.45
2023-05-16T09:59:10.770Z,100352.41
2023-05-16T10:02:16.316Z,100342.22
2023-05-16T10:05:24.436Z,100355.73
2023-05-16T10:08:31.011Z,100354.18
2023-05-16T10:11:36.617Z,100353.80
2023-05-16T10:14:43.481Z,100355.59
2023-05-16T10:17:52.202Z,100352.52
2023-05-16T10:21:00.017Z,100346.16
2023-05-16T10:24:05.594Z,100351.82
2023-05-16T10:27:11.052Z,100351.89
2023-05-16T10:30:16.491Z,100349.95
2023-05-16T10:33:22.997Z,100350.67
2023-05-16T10:36:29.271Z,100349.79
2023-05-16T10:39:34.002Z,100353.02
2023-05-16T10:42:40.084Z,100345.47
2023-05-16T10:45:46.900Z,100342.23
2023-05-16T10:48:55.082Z,100345.55
2023-05-16T10:52:19.749Z,100351.20
2023-05-16T10:55:25.734Z,100345.67
2023-05-16T10:58:54.392Z,100346.67
2023-05-16T11:02:00.846Z,100351.16
2023-05-16T11:05:05.898Z,100350.45
2023-05-16T11:08:21.952Z,100350.45
2023-05-16T11:12:05.599Z,100348.78
2023-05-16T11:15:11.350Z,100348.48
2023-05-16T11:18:29.907Z,100347.31
2023-05-16T11:21:35.582Z,100349.98
2023-05-16T11:24:45.345Z,100345.83
2023-05-16T11:27:53.481Z,100346.09
2023-05-16T11:31:02.416Z,100341.57
2023-05-16T11:34:07.708Z,100339.11
2023-05-16T11:40:30.776Z,100338.68
2023-05-16T11:43:37.431Z,100337.45
2023-05-16T11:46:42.757Z,100340.36
2023-05-16T11:49:49.621Z,100336.91
2023-05-16T11:52:54.838Z,100340.19
2023-05-16T11:56:00.219Z,100336.05
2023-05-16T11:59:06.220Z,100336.64
2023-05-16T12:02:14.519Z,100342.39
2023-05-16T12:05:27.602Z,100330.84
2023-05-16T12:08:32.900Z,100331.02
2023-05-16T12:11:41.475Z,100326.19
2023-05-16T12:14:47.378Z,100332.24
2023-05-16T12:17:55.311Z,100328.75
2023-05-16T12:21:01.593Z,100332.26
2023-05-16T12:24:10.915Z,100329.40
2023-05-16T12:27:17.943Z,100332.55
2023-05-16T12:30:25.620Z,100329.49
2023-05-16T12:33:31.137Z,100319.16
2023-05-16T12:36:36.641Z,100322.19
2023-05-16T12:39:42.176Z,100318.81
2023-05-16T12:42:47.915Z,100322.37
2023-05-16T12:45:53.573Z,100325.27
2023-05-16T12:49:00.193Z,100317.91
2023-05-16T12:52:09.860Z,100318.48
2023-05-16T12:55:17.383Z,100324.34
2023-05-16T12:58:23.155Z,100325.14
2023-05-16T13:01:29.757Z,100331.20
2023-05-16T13:04:36.270Z,100327.55
2023-05-16T13:07:42.319Z,100332.00
2023-05-16T13:10:48.139Z,100331.23
2023-05-16T13:13:54.165Z,100330.47
2023-05-16T13:17:00.175Z,100337.02
2023-05-16T13:20:05.810Z,100339.69
2023-05-16T13:23:13.445Z,100339.39
2023-05-16T13:26:23.118Z,100336.35
2023-05-16T13:29:27.967Z,100336.33
2023-05-16T13:32:33.776Z,100336.64
2023-05-16T13:35:40.454Z,100337.25
2023-05-16T13:38:46.102Z,100335.02
2023-05-16T13:41:51.896Z,100344.57
2023-05-16T13:44:58.551Z,100344.88
2023-05-16T13:48:04.984Z,100341.20
2023-05-16T13:51:10.836Z,100351.02
2023-05-16T13:54:16.349Z,100341.48
2023-05-16T13:57:16.050Z,100346.21
2023-05-16T14:03:16.047Z,100346.22
2023-05-16T14:06:21.681Z,100350.16
2023-05-16T14:09:27.647Z,100344.28
2023-05-16T14:12:33.713Z,100345.39
2023-05-16T14:15:39.769Z,100346.21
2023-05-16T14:18:45.924Z,100335.03
2023-05-16T14:21:52.750Z,100333.59
2023-05-16T14:24:58.988Z,100331.64
2023-05-16T14:28:04.225Z,100329.39
2023-05-16T14:31:10.284Z,100326.61
2023-05-16T14:34:15.676Z,100322.67
2023-05-16T14:37:22.710Z,100321.00
2023-05-16T14:40:29.147Z,100319.58
2023-05-16T14:43:35.757Z,100314.28
2023-05-16T14:46:42.407Z,100316.80
2023-05-16T14:49:48.209Z,100317.61
2023-05-16T14:52:49.798Z,100311.45
2023-05-16T14:55:56.108Z,100308.65
2023-05-16T14:59:01.701Z,100308.33
2023-05-16T15:02:07.239Z,100301.28
2023-05-16T15:05:14.399Z,100304.72
2023-05-16T15:08:20.970Z,100304.97
2023-05-16T15:11:25.938Z,100297.34
2023-05-16T15:14:33.734Z,100294.85
2023-05-16T15:17:40.330Z,100297.61
2023-05-16T15:20:46.387Z,100292.84
2023-05-16T15:23:53.952Z,100293.44
2023-05-16T15:27:01.099Z,100290.84
2023-05-16T15:30:06.125Z,100289.48
2023-05-16T15:33:12.654Z,100283.59
2023-05-16T15:36:18.181Z,100285.56
2023-05-16T15:39:24.729Z,100292.31
2023-05-16T15:42:31.400Z,100296.78
2023-05-16T15:45:40.499Z,100294.54
2023-05-16T15:48:49.178Z,100295.94
2023-05-16T15:51:55.721Z,100296.25
2023-05-16T15:55:01.991Z,100295.93
2023-05-16T15:58:08.522Z,100294.55
2023-05-16T16:01:15.237Z,100292.32
2023-05-16T16:04:22.539Z,100302.12
2023-05-16T16:07:27.755Z,100304.64
2023-05-16T16:10:37.646Z,100301.56
2023-05-16T16:13:45.067Z,100304.02
2023-05-16T16:16:50.345Z,100310.38
2023-05-16T16:19:55.900Z,100306.44
2023-05-16T16:23:01.867Z,100315.11
2023-05-16T16:26:08.383Z,100312.06
2023-05-16T16:29:14.716Z,100313.06
2023-05-16T16:32:23.391Z,100313.06
2023-05-16T16:35:31.505Z,100320.81
2023-05-16T16:38:37.467Z,100319.70
2023-05-16T16:41:44.146Z,100321.68
2023-05-16T16:44:50.216Z,100326.41
2023-05-16T16:47:56.109Z,100329.71
2023-05-16T16:51:01.559Z,100326.36
2023-05-16T16:54:07.459Z,100326.89
2023-05-16T16:57:13.244Z,100320.70
2023-05-16T17:00:21.545Z,100326.30
2023-05-16T17:03:26.724Z,100323.44
2023-05-16T17:06:33.519Z,100326.48
2023-05-16T17:09:40.285Z,100331.79
2023-05-16T17:12:51.170Z,100329.52
2023-05-16T17:15:56.727Z,100334.67
2023-05-16T17:19:03.492Z,100341.23
2023-05-16T17:22:08.823Z,100341.38
2023-05-16T17:25:13.350Z,100342.88
2023-05-16T17:28:18.882Z,100342.77
2023-05-16T17:31:24.720Z,100344.45
2023-05-16T17:34:31.118Z,100349.16
2023-05-16T17:37:37.040Z,100348.45
2023-05-16T17:40:43.664Z,100351.12
2023-05-16T17:43:49.988Z,100351.67
2023-05-16T17:46:56.477Z,100352.58
2023-05-16T17:50:02.445Z,100355.50
2023-05-16T17:53:08.909Z,100357.84
2023-05-16T17:56:15.878Z,100363.42
2023-05-16T17:59:21.351Z,100366.63
2023-05-16T18:02:27.108Z,100370.95
2023-05-16T18:05:32.956Z,100372.83
2023-05-16T18:08:40.149Z,100370.05
2023-05-16T18:11:41.834Z,100380.16
2023-05-16T18:14:43.078Z,100388.63
2023-05-16T18:17:48.591Z,100389.56
2023-05-16T18:20:54.971Z,100393.36
2023-05-16T18:24:03.689Z,100394.69
2023-05-16T18:27:10.169Z,100391.82
2023-05-16T18:30:16.903Z,100402.13
2023-05-16T18:33:23.006Z,100400.80
2023-05-16T18:36:27.980Z,100402.28
2023-05-16T18:39:34.771Z,100400.11
2023-05-16T18:42:40.224Z,100396.70
2023-05-16T18:45:46.341Z,100398.36
2023-05-16T18:48:52.298Z,100400.10
2023-05-16T18:51:56.881Z,100396.69
2023-05-16T18:55:02.406Z,100397.00
2023-05-16T18:58:07.972Z,100401.11
2023-05-16T19:01:13.198Z,100402.39
2023-05-16T19:04:19.120Z,100402.94
2023-05-16T19:07:25.944Z,100398.92
2023-05-16T19:10:32.504Z,100391.80
2023-05-16T19:13:38.955Z,100393.13
2023-05-16T19:16:44.709Z,100396.33
2023-05-16T19:19:50.475Z,100389.97
2023-05-16T19:22:58.691Z,100394.64
2023-05-16T19:26:05.445Z,100390.50
2023-05-16T19:29:11.591Z,100384.81
2023-05-16T19:32:17.758Z,100381.41
2023-05-16T19:35:25.658Z,100380.39
2023-05-16T19:38:33.089Z,100385.70
2023-05-16T19:41:38.417Z,100379.77
2023-05-16T19:44:44.319Z,100376.02
2023-05-16T19:47:50.350Z,100381.53
2023-05-16T19:50:57.770Z,100371.33
2023-05-16T19:54:03.532Z,100372.78
2023-05-16T19:57:09.221Z,100372.64
2023-05-16T20:00:16.783Z,100371.69
2023-05-16T20:03:21.997Z,100370.23
2023-05-16T20:06:27.521Z,100359.28
2023-05-16T20:09:35.107Z,100360.45
2023-05-16T20:12:41.225Z,100353.49
2023-05-16T20:15:47.877Z,100361.10
2023-05-16T20:18:54.290Z,100363.47
2023-05-16T20:22:01.704Z,100363.43
2023-05-16T20:25:06.964Z,100365.22
2023-05-16T20:28:06.013Z,100371.81
2023-05-16T20:31:12.643Z,100369.14
2023-05-16T20:34:18.422Z,100369.84
2023-05-16T20:37:24.041Z,100365.38
2023-05-16T20:40:30.325Z,100364.04
2023-05-16T20:43:36.102Z,100366.59
2023-05-16T20:46:42.098Z,100363.70
2023-05-16T20:49:50.047Z,100357.52
2023-05-16T20:52:55.930Z,100359.98
2023-05-16T20:56:02.035Z,100357.05
2023-05-16T20:59:00.887Z,100353.06
2023-05-16T21:02:07.216Z,100348.97
2023-05-16T21:05:24.208Z,100352.23
2023-05-16T21:08:21.695Z,100350.91
2023-05-16T21:11:28.563Z,100347.72
2023-05-16T21:14:33.641Z,100344.06
2023-05-16T21:17:39.032Z,100340.04
2023-05-16T21:20:45.878Z,100342.22
2023-05-16T21:23:51.417Z,100343.13
2023-05-16T21:26:56.906Z,100337.09
2023-05-16T21:30:04.161Z,100339.88
2023-05-16T21:33:10.139Z,100340.73
2023-05-16T21:36:15.418Z,100336.77
2023-05-16T21:39:21.089Z,100331.04
2023-05-16T21:42:27.327Z,100335.81
2023-05-16T21:45:33.212Z,100333.88
2023-05-16T21:48:38.785Z,100331.44
2023-05-16T21:51:44.586Z,100327.68
2023-05-16T21:54:50.202Z,100319.44
2023-05-16T21:57:56.028Z,100317.50
2023-05-16T22:01:01.946Z,100318.47
2023-05-16T22:04:07.694Z,100316.80
2023-05-16T22:07:12.801Z,100323.53
2023-05-16T22:10:18.561Z,100321.98
2023-05-16T22:13:23.352Z,100322.34
2023-05-16T22:16:29.235Z,100323.17
2023-05-16T22:19:35.057Z,100325.61
2023-05-16T22:22:41.978Z,100321.16
2023-05-16T22:25:48.345Z,100326.41
2023-05-16T22:28:53.690Z,100325.96
2023-05-16T22:31:59.116Z,100319.71
2023-05-16T22:35:05.737Z,100320.94
2023-05-16T22:38:12.001Z,100326.67
2023-05-16T22:41:17.952Z,100317.45
2023-05-16T22:44:23.310Z,100318.92
2023-05-16T22:47:29.393Z,100320.70
2023-05-16T22:50:35.251Z,100317.83
2023-05-16T22:53:42.056Z,100317.77
2023-05-16T22:56:47.764Z,100322.16
2023-05-16T22:59:53.117Z,100324.96
2023-05-16T23:02:58.977Z,100322.56
2023-05-16T23:06:05.138Z,100331.69
2023-05-16T23:09:11.529Z,100327.51
2023-05-16T23:12:16.945Z,100334.51
2023-05-16T23:15:23.384Z,100338.78
2023-05-16T23:18:30.162Z,100340.09
2023-05-16T23:21:35.386Z,100338.91
2023-05-16T23:24:41.773Z,100341.15
2023-05-16T23:27:48.201Z,100343.95
2023-05-16T23:30:55.041Z,100342.27
2023-05-16T23:34:00.891Z,100345.67
2023-05-16T23:37:06.508Z,100345.80
2023-05-16T23:40:11.329Z,100342.53
2023-05-16T23:43:17.697Z,100339.39
2023-05-16T23:46:23.427Z,100333.66
2023-05-16T23:49:28.637Z,100346.56
2023-05-16T23:52:34.486Z,100344.80
2023-05-16T23:55:40.167Z,100344.44
2023-05-16T23:58:46.121Z,100349.33
